createdAt,value
2018-06-05T00:01:46.009Z,11.23
2018-06-05T00:04:16.653Z,10.27
2018-06-05T00:06:46.565Z,10.17
2018-06-05T00:09:16.904Z,10.10
2018-06-05T00:11:47.149Z,9.67
2018-06-05T00:14:20.541Z,8.03
2018-06-05T00:16:50.687Z,10.00
2018-06-05T00:19:20.790Z,8.80
2018-06-05T00:21:50.863Z,10.30
2018-06-05T00:24:21.925Z,10.10
2018-06-05T00:26:52.033Z,8.83
2018-06-05T00:29:22.378Z,9.30
2018-06-05T00:31:52.494Z,9.27
2018-06-05T00:34:22.635Z,8.77
2018-06-05T00:36:52.734Z,9.00
2018-06-05T00:39:22.978Z,9.60
2018-06-05T00:41:53.055Z,9.67
2018-06-05T00:44:23.195Z,9.23
2018-06-05T00:46:53.336Z,8.83
2018-06-05T00:49:23.518Z,8.57
2018-06-05T00:52:05.154Z,8.50
2018-06-05T00:54:35.038Z,8.40
2018-06-05T00:57:05.142Z,8.70
2018-06-05T00:59:35.271Z,8.90
2018-06-05T01:02:05.402Z,8.50
2018-06-05T01:04:35.728Z,9.60
2018-06-05T01:07:05.850Z,8.10
2018-06-05T01:09:35.779Z,7.40
2018-06-05T01:12:05.871Z,7.50
2018-06-05T01:14:36.665Z,8.00
2018-06-05T01:17:06.822Z,8.70
2018-06-05T01:19:36.983Z,8.63
2018-06-05T01:22:07.416Z,8.93
2018-06-05T01:24:37.528Z,8.10
2018-06-05T01:27:11.709Z,8.53
2018-06-05T01:29:42.032Z,9.20
2018-06-05T01:32:12.274Z,8.27
2018-06-05T01:34:42.443Z,8.17
2018-06-05T01:37:12.704Z,8.40
2018-06-05T01:39:43.142Z,8.33
2018-06-05T01:42:13.254Z,8.30
2018-06-05T01:44:43.458Z,8.83
2018-06-05T01:47:13.694Z,8.00
2018-06-05T01:49:44.122Z,8.50
2018-06-05T01:52:14.198Z,8.47
2018-06-05T01:54:44.685Z,8.23
2018-06-05T01:57:15.034Z,8.07
2018-06-05T01:59:45.167Z,8.10
2018-06-05T02:02:15.497Z,8.07
2018-06-05T02:04:45.350Z,8.27
2018-06-05T02:07:15.734Z,8.50
2018-06-05T02:09:45.902Z,8.17
2018-06-05T02:12:16.143Z,8.90
2018-06-05T02:14:47.006Z,8.90
2018-06-05T02:17:17.346Z,7.90
2018-06-05T02:19:47.530Z,7.73
2018-06-05T02:22:17.750Z,8.90
2018-06-05T02:24:48.383Z,7.97
2018-06-05T02:27:18.907Z,8.60
2018-06-05T02:29:49.420Z,10.43
2018-06-05T02:32:19.462Z,8.70
2018-06-05T02:34:49.623Z,8.33
2018-06-05T02:37:19.740Z,8.30
2018-06-05T02:39:49.899Z,8.70
2018-06-05T02:42:19.995Z,8.60
2018-06-05T02:44:50.354Z,9.00
2018-06-05T02:47:20.574Z,8.93
2018-06-05T02:49:50.643Z,8.53
2018-06-05T02:52:20.908Z,8.30
2018-06-05T02:54:51.138Z,9.80
2018-06-05T02:57:21.282Z,8.33
2018-06-05T02:59:51.589Z,9.20
2018-06-05T03:02:21.831Z,8.47
2018-06-05T03:04:51.939Z,10.27
2018-06-05T03:07:22.193Z,8.03
2018-06-05T03:09:52.365Z,9.13
2018-06-05T03:12:22.382Z,9.30
2018-06-05T03:14:52.645Z,9.20
2018-06-05T03:17:22.826Z,9.37
2018-06-05T03:19:53.016Z,9.47
2018-06-05T03:22:23.270Z,9.90
2018-06-05T03:24:53.554Z,9.93
2018-06-05T03:27:24.227Z,8.80
2018-06-05T03:29:54.422Z,10.03
2018-06-05T03:32:24.680Z,9.23
2018-06-05T03:34:54.804Z,8.90
2018-06-05T03:37:25.496Z,9.93
2018-06-05T03:39:55.748Z,10.07
2018-06-05T03:42:28.594Z,9.37
2018-06-05T03:44:58.926Z,9.80
2018-06-05T03:47:29.292Z,10.07
2018-06-05T03:50:02.140Z,11.87
2018-06-05T03:52:32.588Z,10.97
2018-06-05T03:55:03.586Z,10.30
2018-06-05T03:57:33.699Z,11.63
2018-06-05T04:00:04.238Z,10.37
2018-06-05T04:02:34.835Z,10.30
2018-06-05T04:05:04.951Z,10.97
2018-06-05T04:07:35.066Z,10.50
2018-06-05T04:10:05.414Z,9.97
2018-06-05T04:12:35.546Z,10.10
2018-06-05T04:15:06.327Z,10.80
2018-06-05T04:17:36.480Z,11.40
2018-06-05T04:20:06.631Z,9.80
2018-06-05T04:22:36.972Z,9.60
2018-06-05T04:25:07.482Z,11.13
2018-06-05T04:27:40.540Z,11.17
2018-06-05T04:30:10.676Z,10.90
2018-06-05T04:32:40.778Z,10.53
2018-06-05T04:35:10.919Z,11.00
2018-06-05T04:37:41.113Z,10.50
2018-06-05T04:40:11.268Z,10.73
2018-06-05T04:42:42.001Z,11.30
2018-06-05T04:45:12.649Z,11.30
2018-06-05T04:47:42.850Z,11.13
2018-06-05T04:50:13.165Z,10.20
2018-06-05T04:52:43.335Z,12.13
2018-06-05T04:55:13.502Z,11.30
2018-06-05T04:57:43.718Z,10.30
2018-06-05T05:00:13.883Z,11.20
2018-06-05T05:02:44.259Z,12.37
2018-06-05T05:05:14.499Z,12.20
2018-06-05T05:07:44.726Z,13.10
2018-06-05T05:10:15.009Z,13.00
2018-06-05T05:12:45.358Z,13.47
2018-06-05T05:15:15.833Z,13.23
2018-06-05T05:17:46.138Z,14.30
2018-06-05T05:20:16.338Z,12.10
2018-06-05T05:22:46.628Z,13.27
2018-06-05T05:25:16.897Z,13.90
2018-06-05T05:27:47.103Z,13.63
2018-06-05T05:30:17.305Z,13.63
2018-06-05T05:32:47.755Z,14.63
2018-06-05T05:35:18.331Z,14.07
2018-06-05T05:37:48.416Z,14.73
2018-06-05T05:40:18.621Z,14.43
2018-06-05T05:42:48.686Z,12.33
2018-06-05T05:45:18.603Z,15.20
2018-06-05T05:47:48.675Z,13.97
2018-06-05T05:50:19.046Z,14.17
2018-06-05T05:52:49.430Z,13.87
2018-06-05T05:55:19.856Z,13.50
2018-06-05T05:57:50.194Z,14.60
2018-06-05T06:00:20.405Z,14.77
2018-06-05T06:02:50.583Z,13.60
2018-06-05T06:05:20.738Z,13.90
2018-06-05T06:07:50.902Z,13.20
2018-06-05T06:10:20.990Z,12.30
2018-06-05T06:12:51.354Z,13.83
2018-06-05T06:15:21.531Z,14.27
2018-06-05T06:17:51.962Z,13.60
2018-06-05T06:20:21.974Z,12.73
2018-06-05T06:22:52.124Z,13.57
2018-06-05T06:25:22.520Z,14.10
2018-06-05T06:27:52.778Z,13.83
2018-06-05T06:30:23.062Z,12.90
2018-06-05T06:32:53.774Z,12.80
2018-06-05T06:35:24.026Z,13.57
2018-06-05T06:37:54.183Z,13.17
2018-06-05T06:40:24.491Z,13.13
2018-06-05T06:42:54.804Z,12.90
2018-06-05T06:45:25.165Z,14.10
2018-06-05T06:47:55.320Z,13.13
2018-06-05T06:50:25.695Z,12.73
2018-06-05T06:52:55.790Z,12.63
2018-06-05T06:55:26.365Z,12.60
2018-06-05T06:57:56.551Z,12.73
2018-06-05T07:00:27.119Z,15.40
2018-06-05T07:02:57.523Z,12.73
2018-06-05T07:05:27.634Z,12.73
2018-06-05T07:07:57.956Z,14.03
2018-06-05T07:10:28.215Z,13.50
2018-06-05T07:12:58.550Z,13.47
2018-06-05T07:15:29.026Z,12.40
2018-06-05T07:17:59.391Z,12.67
2018-06-05T07:20:29.504Z,12.30
2018-06-05T07:22:59.697Z,10.53
2018-06-05T07:25:30.073Z,11.23
2018-06-05T07:28:00.468Z,12.40
2018-06-05T07:30:30.668Z,12.70
2018-06-05T07:33:01.082Z,13.30
2018-06-05T07:35:31.500Z,12.27
2018-06-05T07:38:01.793Z,11.67
2018-06-05T07:40:32.102Z,12.80
2018-06-05T07:43:02.387Z,12.37
2018-06-05T07:45:32.514Z,11.17
2018-06-05T07:48:02.887Z,11.93
2018-06-05T07:50:33.143Z,12.77
2018-06-05T07:53:03.327Z,12.70
2018-06-05T07:55:33.349Z,11.83
2018-06-05T07:58:03.743Z,11.07
2018-06-05T08:00:34.082Z,12.00
2018-06-05T08:03:04.411Z,11.33
2018-06-05T08:05:34.719Z,11.57
2018-06-05T08:08:04.826Z,10.90
2018-06-05T08:10:34.987Z,10.40
2018-06-05T08:13:05.048Z,11.90
2018-06-05T08:15:35.114Z,11.60
2018-06-05T08:18:05.289Z,11.20
2018-06-05T08:20:35.549Z,11.50
2018-06-05T08:23:06.150Z,10.70
2018-06-05T08:25:36.418Z,10.50
2018-06-05T08:28:08.418Z,10.60
2018-06-05T08:30:38.681Z,10.03
2018-06-05T08:33:08.587Z,9.87
2018-06-05T08:35:38.722Z,10.80
2018-06-05T08:38:09.122Z,9.90
2018-06-05T08:40:39.338Z,9.97
2018-06-05T08:43:09.614Z,9.77
2018-06-05T08:45:40.030Z,10.17
2018-06-05T08:48:10.141Z,10.27
2018-06-05T08:50:40.329Z,9.73
2018-06-05T08:53:10.404Z,10.10
2018-06-05T08:55:40.677Z,8.80
2018-06-05T08:58:10.733Z,9.77
2018-06-05T09:00:40.943Z,10.20
2018-06-05T09:03:13.739Z,9.50
2018-06-05T09:05:44.124Z,8.83
2018-06-05T09:08:14.298Z,7.93
2018-06-05T09:10:44.306Z,8.80
2018-06-05T09:13:15.072Z,9.90
2018-06-05T09:15:45.303Z,9.63
2018-06-05T09:18:15.517Z,10.30
2018-06-05T09:20:45.664Z,9.53
2018-06-05T09:23:15.716Z,10.70
2018-06-05T09:25:46.131Z,9.87
2018-06-05T09:28:16.219Z,10.43
2018-06-05T09:30:46.651Z,9.77
2018-06-05T09:33:17.174Z,10.43
2018-06-05T09:35:47.398Z,10.13
2018-06-05T09:38:17.524Z,9.83
2018-06-05T09:40:47.394Z,9.97
2018-06-05T09:43:17.651Z,9.80
2018-06-05T09:45:48.109Z,9.53
2018-06-05T09:48:18.098Z,10.30
2018-06-05T09:50:48.308Z,9.23
2018-06-05T09:53:18.649Z,8.40
2018-06-05T09:55:48.684Z,8.33
2018-06-05T09:58:18.951Z,8.50
2018-06-05T10:00:52.666Z,8.50
2018-06-05T10:03:22.649Z,8.20
2018-06-05T10:05:52.730Z,8.43
2018-06-05T10:08:22.951Z,7.70
2018-06-05T10:10:53.185Z,8.30
2018-06-05T10:13:23.530Z,8.13
2018-06-05T10:15:54.231Z,7.40
2018-06-05T10:18:24.452Z,7.60
2018-06-05T10:20:54.472Z,9.10
2018-06-05T10:23:24.708Z,7.83
2018-06-05T10:25:54.648Z,8.60
2018-06-05T10:28:25.246Z,8.50
2018-06-05T10:30:55.447Z,7.90
2018-06-05T10:33:25.789Z,8.53
2018-06-05T10:35:55.976Z,7.37
2018-06-05T10:38:26.274Z,7.43
2018-06-05T10:40:56.490Z,8.23
2018-06-05T10:43:26.650Z,7.80
2018-06-05T10:45:56.733Z,7.27
2018-06-05T10:48:26.706Z,6.87
2018-06-05T10:50:56.972Z,8.93
2018-06-05T10:53:27.076Z,7.73
2018-06-05T10:55:57.286Z,9.00
2018-06-05T10:58:27.536Z,7.67
2018-06-05T11:00:58.754Z,7.80
2018-06-05T11:03:28.896Z,7.37
2018-06-05T11:05:59.240Z,7.20
2018-06-05T11:08:29.403Z,7.30
2018-06-05T11:10:59.535Z,7.57
2018-06-05T11:13:30.060Z,6.97
2018-06-05T11:16:00.192Z,7.50
2018-06-05T11:18:30.362Z,6.93
2018-06-05T11:21:00.588Z,7.27
2018-06-05T11:23:31.462Z,7.40
2018-06-05T11:26:01.694Z,6.03
2018-06-05T11:28:32.067Z,7.77
2018-06-05T11:31:02.260Z,6.77
2018-06-05T11:33:32.349Z,6.20
2018-06-05T11:36:02.543Z,7.43
2018-06-05T11:38:32.602Z,6.63
2018-06-05T11:41:03.202Z,6.30
2018-06-05T11:43:33.158Z,6.57
2018-06-05T11:46:03.266Z,6.53
2018-06-05T11:48:39.924Z,6.80
2018-06-05T11:51:10.387Z,5.87
2018-06-05T11:53:40.810Z,5.80
2018-06-05T11:56:17.795Z,6.50
2018-06-05T11:58:48.004Z,5.90
2018-06-05T12:01:18.218Z,6.53
2018-06-05T12:03:48.592Z,7.53
2018-06-05T12:06:18.650Z,6.80
2018-06-05T12:08:48.822Z,5.80
2018-06-05T12:11:19.197Z,5.90
2018-06-05T12:13:49.341Z,6.00
2018-06-05T12:16:20.170Z,6.80
2018-06-05T12:18:50.397Z,6.20
2018-06-05T12:21:20.839Z,6.30
2018-06-05T12:23:51.093Z,7.03
2018-06-05T12:26:21.443Z,6.07
2018-06-05T12:28:51.671Z,6.40
2018-06-05T12:31:21.999Z,7.30
2018-06-05T12:33:52.215Z,6.90
2018-06-05T12:36:22.622Z,6.23
2018-06-05T12:38:52.870Z,6.43
2018-06-05T12:41:23.157Z,6.07
2018-06-05T12:43:53.222Z,7.10
2018-06-05T12:46:23.382Z,6.60
2018-06-05T12:48:53.573Z,6.40
2018-06-05T12:51:23.933Z,6.57
2018-06-05T12:53:54.145Z,6.37
2018-06-05T12:56:24.489Z,6.80
2018-06-05T12:58:54.717Z,7.13
2018-06-05T13:01:25.052Z,5.93
2018-06-05T13:03:55.496Z,5.10
2018-06-05T13:06:25.854Z,6.03
2018-06-05T13:08:56.119Z,5.80
2018-06-05T13:11:26.534Z,6.30
2018-06-05T13:13:56.702Z,5.83
2018-06-05T13:16:27.042Z,6.50
2018-06-05T13:18:57.159Z,5.73
2018-06-05T13:21:27.354Z,5.20
2018-06-05T13:23:57.687Z,6.27
2018-06-05T13:26:27.882Z,5.90
2018-06-05T13:28:58.079Z,6.20
2018-06-05T13:31:28.282Z,6.17
2018-06-05T13:33:58.405Z,6.97
2018-06-05T13:36:28.504Z,8.53
2018-06-05T13:38:58.731Z,7.50
2018-06-05T13:41:28.877Z,8.00
2018-06-05T13:43:59.113Z,7.13
2018-06-05T13:46:29.828Z,6.63
2018-06-05T13:48:59.975Z,6.07
2018-06-05T13:51:30.172Z,6.83
2018-06-05T13:54:00.457Z,6.00
2018-06-05T13:56:31.024Z,5.97
2018-06-05T13:59:01.111Z,5.27
2018-06-05T14:01:31.337Z,5.40
2018-06-05T14:04:01.588Z,4.20
2018-06-05T14:06:32.124Z,4.70
2018-06-05T14:09:02.556Z,5.50
2018-06-05T14:11:32.541Z,5.60
2018-06-05T14:14:02.834Z,5.60
2018-06-05T14:16:32.894Z,5.97
2018-06-05T14:19:03.268Z,6.20
2018-06-05T14:21:33.554Z,6.30
2018-06-05T14:24:03.876Z,6.80
2018-06-05T14:26:33.851Z,5.70
2018-06-05T14:29:04.220Z,5.90
2018-06-05T14:31:34.394Z,5.00
2018-06-05T14:34:04.659Z,5.67
2018-06-05T14:36:34.986Z,5.33
2018-06-05T14:39:11.841Z,5.87
2018-06-05T14:41:42.167Z,5.53
2018-06-05T14:44:12.609Z,5.90
2018-06-05T14:46:42.786Z,6.47
2018-06-05T14:49:12.937Z,6.30
2018-06-05T14:51:43.014Z,6.47
2018-06-05T14:54:13.293Z,6.30
2018-06-05T14:56:43.539Z,7.13
2018-06-05T14:59:13.786Z,7.30
2018-06-05T15:01:43.971Z,6.83
2018-06-05T15:04:13.987Z,6.80
2018-06-05T15:06:44.196Z,6.80
2018-06-05T15:09:14.506Z,6.87
2018-06-05T15:11:44.566Z,6.33
2018-06-05T15:14:14.968Z,7.40
2018-06-05T15:16:45.258Z,7.10
2018-06-05T15:19:15.422Z,6.40
2018-06-05T15:21:45.513Z,7.00
2018-06-05T15:24:15.653Z,5.90
2018-06-05T15:26:45.881Z,7.13
2018-06-05T15:29:16.206Z,7.60
2018-06-05T15:31:46.376Z,7.67
2018-06-05T15:34:16.439Z,8.70
2018-06-05T15:36:46.657Z,7.00
2018-06-05T15:39:16.687Z,8.10
2018-06-05T15:41:47.095Z,7.57
2018-06-05T15:44:17.241Z,6.97
2018-06-05T15:46:47.464Z,7.53
2018-06-05T15:49:17.550Z,7.10
2018-06-05T15:51:47.798Z,7.17
2018-06-05T15:54:17.802Z,7.77
2018-06-05T15:56:48.231Z,7.40
2018-06-05T15:59:18.457Z,7.37
2018-06-05T16:01:48.473Z,7.33
2018-06-05T16:04:18.886Z,8.00
2018-06-05T16:06:49.166Z,7.80
2018-06-05T16:09:19.344Z,7.73
2018-06-05T16:11:49.582Z,8.27
2018-06-05T16:14:19.846Z,8.23
2018-06-05T16:16:49.918Z,8.70
2018-06-05T16:19:20.078Z,8.37
2018-06-05T16:21:50.286Z,7.33
2018-06-05T16:24:20.370Z,7.63
2018-06-05T16:26:50.696Z,7.23
2018-06-05T16:29:20.819Z,7.13
2018-06-05T16:31:51.039Z,7.00
2018-06-05T16:34:21.154Z,7.63
2018-06-05T16:36:51.379Z,8.00
2018-06-05T16:39:21.656Z,8.07
2018-06-05T16:41:52.962Z,7.30
2018-06-05T16:44:23.082Z,7.87
2018-06-05T16:46:53.096Z,7.33
2018-06-05T16:49:23.226Z,7.30
2018-06-05T16:51:53.159Z,6.80
2018-06-05T16:54:23.342Z,7.17
2018-06-05T16:56:53.535Z,7.57
2018-06-05T16:59:23.796Z,6.70
2018-06-05T17:01:54.019Z,6.87
2018-06-05T17:04:24.270Z,7.27
2018-06-05T17:06:54.591Z,7.03
2018-06-05T17:09:24.474Z,7.53
2018-06-05T17:11:54.666Z,7.10
2018-06-05T17:14:24.936Z,6.67
2018-06-05T17:16:55.134Z,6.80
2018-06-05T17:19:25.280Z,7.27
2018-06-05T17:21:55.431Z,6.70
2018-06-05T17:24:25.825Z,6.97
2018-06-05T17:26:55.951Z,6.90
2018-06-05T17:29:26.154Z,7.30
2018-06-05T17:31:56.546Z,6.80
2018-06-05T17:34:26.606Z,7.23
2018-06-05T17:36:56.726Z,8.40
2018-06-05T17:39:26.957Z,7.70
2018-06-05T17:41:57.150Z,8.40
2018-06-05T17:44:27.499Z,8.33
2018-06-05T17:46:57.732Z,7.87
2018-06-05T17:49:27.785Z,7.23
2018-06-05T17:51:58.016Z,7.83
2018-06-05T17:54:28.283Z,7.83
2018-06-05T17:56:58.730Z,8.20
2018-06-05T17:59:28.810Z,7.90
2018-06-05T18:01:58.970Z,7.87
2018-06-05T18:04:29.090Z,8.13
2018-06-05T18:06:59.406Z,8.20
2018-06-05T18:09:29.283Z,7.93
2018-06-05T18:11:59.763Z,8.85
2018-06-05T18:14:30.163Z,8.60
2018-06-05T18:17:00.713Z,9.37
2018-06-05T18:19:37.413Z,8.60
2018-06-05T18:22:07.750Z,8.37
2018-06-05T18:24:37.895Z,8.27
2018-06-05T18:27:08.339Z,9.20
2018-06-05T18:29:38.492Z,9.03
2018-06-05T18:32:09.127Z,9.10
2018-06-05T18:34:39.315Z,7.83
2018-06-05T18:37:09.532Z,9.23
2018-06-05T18:39:40.082Z,9.30
2018-06-05T18:42:10.313Z,9.00
2018-06-05T18:44:40.555Z,9.37
2018-06-05T18:47:10.762Z,9.50
2018-06-05T18:49:40.955Z,8.40
2018-06-05T18:52:11.090Z,8.60
2018-06-05T18:54:41.433Z,8.50
2018-06-05T18:57:11.518Z,9.10
2018-06-05T18:59:41.909Z,8.60
2018-06-05T19:02:12.198Z,9.10
2018-06-05T19:04:42.484Z,8.23
2018-06-05T19:07:12.763Z,8.70
2018-06-05T19:09:43.352Z,8.43
2018-06-05T19:12:13.717Z,8.33
2018-06-05T19:14:44.145Z,9.27
2018-06-05T19:17:14.212Z,9.17
2018-06-05T19:19:44.597Z,8.60
2018-06-05T19:22:14.713Z,8.90
2018-06-05T19:24:44.954Z,9.60
2018-06-05T19:27:15.348Z,9.57
2018-06-05T19:29:46.019Z,8.27
2018-06-05T19:32:17.046Z,9.30
2018-06-05T19:34:47.364Z,9.63
2018-06-05T19:37:17.527Z,10.00
2018-06-05T19:39:48.100Z,8.37
2018-06-05T19:42:18.431Z,9.50
2018-06-05T19:44:48.539Z,9.77
2018-06-05T19:47:18.833Z,10.40
2018-06-05T19:49:49.162Z,9.93
2018-06-05T19:52:19.407Z,9.90
2018-06-05T19:54:49.924Z,10.90
2018-06-05T19:57:20.155Z,10.67
2018-06-05T19:59:50.420Z,11.57
2018-06-05T20:02:20.773Z,10.93
2018-06-05T20:04:52.079Z,12.00
2018-06-05T20:07:22.278Z,11.93
2018-06-05T20:09:52.629Z,10.60
2018-06-05T20:12:23.008Z,11.60
2018-06-05T20:14:53.387Z,12.10
2018-06-05T20:17:23.679Z,12.20
2018-06-05T20:19:53.819Z,12.27
2018-06-05T20:22:24.952Z,11.50
2018-06-05T20:24:55.256Z,11.30
2018-06-05T20:27:25.386Z,11.70
2018-06-05T20:29:55.607Z,11.20
2018-06-05T20:32:26.763Z,11.80
2018-06-05T20:34:57.226Z,11.87
2018-06-05T20:37:28.015Z,11.00
2018-06-05T20:39:58.335Z,12.00
2018-06-05T20:42:29.156Z,11.67
2018-06-05T20:44:59.671Z,12.10
2018-06-05T20:47:30.741Z,11.47
2018-06-05T20:50:00.975Z,10.73
2018-06-05T20:52:31.094Z,11.47
2018-06-05T20:55:01.907Z,10.90
2018-06-05T20:57:32.406Z,10.80
2018-06-05T21:00:02.834Z,10.20
2018-06-05T21:02:33.211Z,10.57
2018-06-05T21:05:03.561Z,10.30
2018-06-05T21:07:34.062Z,10.43
2018-06-05T21:10:04.479Z,10.93
2018-06-05T21:12:34.867Z,11.13
2018-06-05T21:15:05.109Z,9.57
2018-06-05T21:17:35.360Z,10.10
2018-06-05T21:20:06.797Z,10.67
2018-06-05T21:22:37.209Z,11.53
2018-06-05T21:25:07.714Z,10.37
2018-06-05T21:27:38.215Z,11.53
2018-06-05T21:30:08.903Z,11.03
2018-06-05T21:32:39.926Z,10.37
2018-06-05T21:35:10.194Z,10.17
2018-06-05T21:37:40.565Z,11.57
2018-06-05T21:40:10.842Z,11.00
2018-06-05T21:42:41.075Z,11.53
2018-06-05T21:45:11.222Z,10.80
2018-06-05T21:47:41.749Z,10.90
2018-06-05T21:50:11.967Z,11.17
2018-06-05T21:52:48.681Z,11.37
2018-06-05T21:55:21.713Z,11.03
2018-06-05T21:57:51.824Z,10.70
2018-06-05T22:00:23.108Z,11.37
2018-06-05T22:02:53.147Z,11.20
2018-06-05T22:05:23.422Z,11.10
2018-06-05T22:07:53.650Z,11.60
2018-06-05T22:10:23.731Z,10.93
2018-06-05T22:12:54.062Z,10.53
2018-06-05T22:15:24.402Z,10.43
2018-06-05T22:17:54.613Z,9.93
2018-06-05T22:20:24.841Z,10.30
2018-06-05T22:22:54.910Z,10.80
2018-06-05T22:25:25.180Z,10.20
2018-06-05T22:27:55.193Z,10.57
2018-06-05T22:30:25.620Z,10.70
2018-06-05T22:32:55.738Z,9.60
2018-06-05T22:35:25.910Z,11.00
2018-06-05T22:37:55.974Z,9.33
2018-06-05T22:40:26.209Z,9.27
2018-06-05T22:42:56.538Z,9.40
2018-06-05T22:45:26.675Z,11.20
2018-06-05T22:47:56.774Z,10.27
2018-06-05T22:50:26.936Z,9.90
2018-06-05T22:52:57.391Z,9.63
2018-06-05T22:55:27.584Z,10.33
2018-06-05T22:57:57.911Z,9.50
2018-06-05T23:00:32.996Z,9.53
2018-06-05T23:03:03.094Z,9.23
2018-06-05T23:05:33.378Z,10.10
2018-06-05T23:08:03.431Z,9.30
2018-06-05T23:10:33.575Z,9.30
2018-06-05T23:13:03.679Z,10.17
2018-06-05T23:15:33.923Z,9.23
2018-06-05T23:18:04.143Z,9.30
2018-06-05T23:20:34.368Z,9.37
2018-06-05T23:23:04.579Z,9.83
2018-06-05T23:25:34.645Z,9.87
2018-06-05T23:28:04.671Z,10.50
2018-06-05T23:30:36.778Z,9.97
2018-06-05T23:33:06.971Z,9.30
2018-06-05T23:35:37.341Z,9.47
2018-06-05T23:38:07.479Z,11.00
2018-06-05T23:40:37.670Z,9.77
2018-06-05T23:43:08.961Z,10.20
2018-06-05T23:45:39.040Z,9.80
2018-06-05T23:48:09.328Z,10.00
2018-06-05T23:50:39.398Z,11.17
2018-06-05T23:53:09.643Z,9.43
2018-06-05T23:55:40.794Z,11.00
2018-06-05T23:58:11.288Z,9.60
